sensor_id;sensor_type;location;lat;lon;timestamp;pressure;altitude;pressure_sealevel;temperature;humidity
65659;BME280;60181;53.258;6.932;2024-03-06T00:00:40;102076.33;;;13.49;51.07
65659;BME280;60181;53.258;6.932;2024-03-06T00:04:52;102079.25;;;13.48;51.06
65659;BME280;60181;53.258;6.932;2024-03-06T00:09:04;102081.97;;;13.46;51.11
65659;BME280;60181;53.258;6.932;2024-03-06T00:13:16;102085.10;;;13.44;51.17
65659;BME280;60181;53.258;6.932;2024-03-06T00:17:28;102087.52;;;13.42;50.88
65659;BME280;60181;53.258;6.932;2024-03-06T00:21:40;102090.12;;;13.41;50.62
65659;BME280;60181;53.258;6.932;2024-03-06T00:25:52;102092.07;;;13.39;50.55
65659;BME280;60181;53.258;6.932;2024-03-06T00:30:05;102095.14;;;13.37;50.49
65659;BME280;60181;53.258;6.932;2024-03-06T00:34:16;102098.27;;;13.35;50.36
65659;BME280;60181;53.258;6.932;2024-03-06T00:38:28;102101.93;;;13.34;50.54
65659;BME280;60181;53.258;6.932;2024-03-06T00:42:40;102103.74;;;13.34;50.54
65659;BME280;60181;53.258;6.932;2024-03-06T00:46:52;102105.93;;;13.33;50.70
65659;BME280;60181;53.258;6.932;2024-03-06T00:51:05;102107.90;;;13.33;50.69
65659;BME280;60181;53.258;6.932;2024-03-06T00:55:16;102110.16;;;13.32;50.75
65659;BME280;60181;53.258;6.932;2024-03-06T00:59:28;102112.59;;;13.31;50.68
65659;BME280;60181;53.258;6.932;2024-03-06T01:03:40;102116.01;;;13.30;50.67
65659;BME280;60181;53.258;6.932;2024-03-06T01:07:52;102118.59;;;13.29;50.81
65659;BME280;60181;53.258;6.932;2024-03-06T01:12:04;102120.78;;;13.27;50.67
65659;BME280;60181;53.258;6.932;2024-03-06T01:16:16;102123.78;;;13.27;50.92
65659;BME280;60181;53.258;6.932;2024-03-06T01:20:28;102126.33;;;13.26;50.75
65659;BME280;60181;53.258;6.932;2024-03-06T01:24:40;102128.34;;;13.25;50.59
65659;BME280;60181;53.258;6.932;2024-03-06T01:28:52;102131.30;;;13.23;50.67
65659;BME280;60181;53.258;6.932;2024-03-06T01:33:04;102132.40;;;13.22;50.65
65659;BME280;60181;53.258;6.932;2024-03-06T01:37:16;102133.31;;;13.20;50.52
65659;BME280;60181;53.258;6.932;2024-03-06T01:41:28;102135.00;;;13.18;50.58
65659;BME280;60181;53.258;6.932;2024-03-06T01:45:40;102135.78;;;13.18;50.61
65659;BME280;60181;53.258;6.932;2024-03-06T01:49:52;102137.55;;;13.17;50.45
65659;BME280;60181;53.258;6.932;2024-03-06T01:54:04;102139.48;;;13.15;50.63
65659;BME280;60181;53.258;6.932;2024-03-06T01:58:16;102141.17;;;13.14;50.67
65659;BME280;60181;53.258;6.932;2024-03-06T02:02:28;102143.63;;;13.14;50.63
65659;BME280;60181;53.258;6.932;2024-03-06T02:06:40;102144.17;;;13.13;50.63
65659;BME280;60181;53.258;6.932;2024-03-06T02:10:52;102145.68;;;13.12;50.63
65659;BME280;60181;53.258;6.932;2024-03-06T02:15:04;102146.38;;;13.11;50.73
65659;BME280;60181;53.258;6.932;2024-03-06T02:19:16;102147.66;;;13.10;50.76
65659;BME280;60181;53.258;6.932;2024-03-06T02:23:28;102150.66;;;13.09;50.75
65659;BME280;60181;53.258;6.932;2024-03-06T02:27:40;102154.03;;;13.09;50.71
65659;BME280;60181;53.258;6.932;2024-03-06T02:31:52;102156.91;;;13.08;50.74
65659;BME280;60181;53.258;6.932;2024-03-06T02:36:04;102160.03;;;13.08;50.86
65659;BME280;60181;53.258;6.932;2024-03-06T02:40:16;102161.31;;;13.08;50.80
65659;BME280;60181;53.258;6.932;2024-03-06T02:44:28;102162.67;;;13.07;50.97
65659;BME280;60181;53.258;6.932;2024-03-06T02:48:40;102164.97;;;13.07;50.99
65659;BME280;60181;53.258;6.932;2024-03-06T02:52:52;102166.74;;;13.06;51.02
65659;BME280;60181;53.258;6.932;2024-03-06T02:57:04;102167.88;;;13.05;51.13
65659;BME280;60181;53.258;6.932;2024-03-06T03:01:16;102168.21;;;13.05;51.17
65659;BME280;60181;53.258;6.932;2024-03-06T03:05:28;102170.18;;;13.05;51.39
65659;BME280;60181;53.258;6.932;2024-03-06T03:09:40;102171.79;;;13.04;51.35
65659;BME280;60181;53.258;6.932;2024-03-06T03:13:52;102173.85;;;13.04;51.41
65659;BME280;60181;53.258;6.932;2024-03-06T03:18:04;102175.94;;;13.04;51.41
65659;BME280;60181;53.258;6.932;2024-03-06T03:22:16;102178.32;;;13.03;51.57
65659;BME280;60181;53.258;6.932;2024-03-06T03:26:28;102180.74;;;13.02;51.70
65659;BME280;60181;53.258;6.932;2024-03-06T03:30:40;102183.67;;;13.01;51.57
65659;BME280;60181;53.258;6.932;2024-03-06T03:34:53;102185.63;;;13.01;51.69
65659;BME280;60181;53.258;6.932;2024-03-06T03:39:04;102188.51;;;13.01;51.71
65659;BME280;60181;53.258;6.932;2024-03-06T03:43:16;102191.11;;;13.00;51.74
65659;BME280;60181;53.258;6.932;2024-03-06T03:47:28;102193.41;;;12.99;51.64
65659;BME280;60181;53.258;6.932;2024-03-06T03:51:40;102196.20;;;12.99;51.75
65659;BME280;60181;53.258;6.932;2024-03-06T03:55:52;102199.98;;;12.99;51.73
65659;BME280;60181;53.258;6.932;2024-03-06T04:00:04;102203.66;;;12.99;51.75
65659;BME280;60181;53.258;6.932;2024-03-06T04:04:16;102207.09;;;12.99;51.85
65659;BME280;60181;53.258;6.932;2024-03-06T04:08:28;102209.72;;;12.98;51.92
65659;BME280;60181;53.258;6.932;2024-03-06T04:12:40;102211.33;;;12.98;51.93
65659;BME280;60181;53.258;6.932;2024-03-06T04:16:52;102213.39;;;12.97;52.07
65659;BME280;60181;53.258;6.932;2024-03-06T04:21:04;102214.74;;;12.97;52.01
65659;BME280;60181;53.258;6.932;2024-03-06T04:25:16;102215.11;;;12.96;52.22
65659;BME280;60181;53.258;6.932;2024-03-06T04:29:28;102216.09;;;12.95;52.41
65659;BME280;60181;53.258;6.932;2024-03-06T04:33:41;102217.70;;;12.95;52.69
65659;BME280;60181;53.258;6.932;2024-03-06T04:37:52;102219.09;;;12.94;52.60
65659;BME280;60181;53.258;6.932;2024-03-06T04:42:04;102221.31;;;12.94;52.65
65659;BME280;60181;53.258;6.932;2024-03-06T04:46:16;102223.41;;;12.93;52.70
65659;BME280;60181;53.258;6.932;2024-03-06T04:50:28;102225.74;;;12.92;52.57
65659;BME280;60181;53.258;6.932;2024-03-06T04:54:40;102228.25;;;12.91;52.67
65659;BME280;60181;53.258;6.932;2024-03-06T04:58:52;102230.55;;;12.91;52.53
65659;BME280;60181;53.258;6.932;2024-03-06T05:03:04;102233.29;;;12.90;52.51
65659;BME280;60181;53.258;6.932;2024-03-06T05:07:16;102237.78;;;12.89;52.27
65659;BME280;60181;53.258;6.932;2024-03-06T05:11:28;102241.60;;;12.88;52.38
65659;BME280;60181;53.258;6.932;2024-03-06T05:15:40;102245.71;;;12.88;52.42
65659;BME280;60181;53.258;6.932;2024-03-06T05:19:52;102249.81;;;12.87;52.22
65659;BME280;60181;53.258;6.932;2024-03-06T05:24:04;102253.98;;;12.87;52.18
65659;BME280;60181;53.258;6.932;2024-03-06T05:28:16;102257.75;;;12.86;52.45
65659;BME280;60181;53.258;6.932;2024-03-06T05:32:28;102261.38;;;12.87;52.41
65659;BME280;60181;53.258;6.932;2024-03-06T05:36:40;102264.65;;;12.86;52.36
65659;BME280;60181;53.258;6.932;2024-03-06T05:40:52;102269.06;;;12.86;52.28
65659;BME280;60181;53.258;6.932;2024-03-06T05:45:04;102273.71;;;12.84;52.49
65659;BME280;60181;53.258;6.932;2024-03-06T05:49:16;102278.54;;;12.84;52.43
65659;BME280;60181;53.258;6.932;2024-03-06T05:53:28;102284.50;;;12.83;52.42
65659;BME280;60181;53.258;6.932;2024-03-06T05:57:40;102291.53;;;12.82;52.36
65659;BME280;60181;53.258;6.932;2024-03-06T06:01:52;102297.41;;;12.81;52.26
65659;BME280;60181;53.258;6.932;2024-03-06T06:06:04;102304.22;;;12.81;52.43
65659;BME280;60181;53.258;6.932;2024-03-06T06:10:16;102310.97;;;12.81;52.33
65659;BME280;60181;53.258;6.932;2024-03-06T06:14:28;102317.22;;;12.81;52.58
65659;BME280;60181;53.258;6.932;2024-03-06T06:18:40;102322.80;;;12.81;52.41
65659;BME280;60181;53.258;6.932;2024-03-06T06:22:52;102327.73;;;12.81;52.47
65659;BME280;60181;53.258;6.932;2024-03-06T06:27:04;102331.73;;;12.80;52.51
65659;BME280;60181;53.258;6.932;2024-03-06T06:31:16;102334.77;;;12.80;52.51
65659;BME280;60181;53.258;6.932;2024-03-06T06:35:28;102338.64;;;12.80;52.44
65659;BME280;60181;53.258;6.932;2024-03-06T06:39:40;102342.88;;;12.81;52.80
65659;BME280;60181;53.258;6.932;2024-03-06T06:43:52;102348.11;;;12.82;52.65
65659;BME280;60181;53.258;6.932;2024-03-06T06:48:04;102351.84;;;12.83;52.74
65659;BME280;60181;53.258;6.932;2024-03-06T06:52:16;102356.02;;;12.85;53.12
65659;BME280;60181;53.258;6.932;2024-03-06T06:56:28;102360.44;;;12.90;53.26
65659;BME280;60181;53.258;6.932;2024-03-06T07:00:40;102365.20;;;12.95;53.27
65659;BME280;60181;53.258;6.932;2024-03-06T07:04:52;102369.10;;;13.00;53.46
65659;BME280;60181;53.258;6.932;2024-03-06T07:09:04;102373.33;;;13.04;53.63
65659;BME280;60181;53.258;6.932;2024-03-06T07:13:16;102377.75;;;13.08;53.78
65659;BME280;60181;53.258;6.932;2024-03-06T07:17:28;102382.74;;;13.11;53.99
65659;BME280;60181;53.258;6.932;2024-03-06T07:21:40;102387.48;;;13.14;54.18
65659;BME280;60181;53.258;6.932;2024-03-06T07:25:52;102392.44;;;13.16;54.22
65659;BME280;60181;53.258;6.932;2024-03-06T07:30:04;102397.63;;;13.18;54.49
65659;BME280;60181;53.258;6.932;2024-03-06T07:34:16;102403.11;;;13.20;54.56
65659;BME280;60181;53.258;6.932;2024-03-06T07:38:28;102408.09;;;13.21;54.58
65659;BME280;60181;53.258;6.932;2024-03-06T07:42:40;102412.55;;;13.23;54.77
65659;BME280;60181;53.258;6.932;2024-03-06T07:46:52;102416.02;;;13.24;54.90
65659;BME280;60181;53.258;6.932;2024-03-06T07:51:04;102419.35;;;13.25;54.92
65659;BME280;60181;53.258;6.932;2024-03-06T07:55:16;102421.86;;;13.25;55.25
65659;BME280;60181;53.258;6.932;2024-03-06T07:59:28;102423.72;;;13.26;55.30
65659;BME280;60181;53.258;6.932;2024-03-06T08:03:40;102426.16;;;13.28;55.16
65659;BME280;60181;53.258;6.932;2024-03-06T08:07:51;102428.42;;;13.28;55.16
65659;BME280;60181;53.258;6.932;2024-03-06T08:12:04;102432.25;;;13.29;55.30
65659;BME280;60181;53.258;6.932;2024-03-06T08:16:15;102435.79;;;13.30;55.35
65659;BME280;60181;53.258;6.932;2024-03-06T08:20:27;102439.38;;;13.31;55.13
65659;BME280;60181;53.258;6.932;2024-03-06T08:24:39;102444.03;;;13.32;55.40
65659;BME280;60181;53.258;6.932;2024-03-06T08:28:51;102448.94;;;13.33;55.44
65659;BME280;60181;53.258;6.932;2024-03-06T08:33:04;102455.16;;;13.35;55.32
65659;BME280;60181;53.258;6.932;2024-03-06T08:37:15;102461.06;;;13.36;55.47
65659;BME280;60181;53.258;6.932;2024-03-06T08:41:27;102465.66;;;13.37;55.67
65659;BME280;60181;53.258;6.932;2024-03-06T08:45:39;102469.96;;;13.38;55.61
65659;BME280;60181;53.258;6.932;2024-03-06T08:49:51;102473.95;;;13.39;55.64
65659;BME280;60181;53.258;6.932;2024-03-06T08:54:03;102477.44;;;13.41;55.64
65659;BME280;60181;53.258;6.932;2024-03-06T08:58:15;102481.37;;;13.42;55.66
65659;BME280;60181;53.258;6.932;2024-03-06T09:02:27;102484.92;;;13.44;56.09
65659;BME280;60181;53.258;6.932;2024-03-06T09:06:39;102488.96;;;13.52;61.20
65659;BME280;60181;53.258;6.932;2024-03-06T09:10:51;102492.81;;;13.64;61.00
65659;BME280;60181;53.258;6.932;2024-03-06T09:15:04;102495.29;;;13.74;60.70
65659;BME280;60181;53.258;6.932;2024-03-06T09:19:16;102499.76;;;13.80;60.61
65659;BME280;60181;53.258;6.932;2024-03-06T09:23:27;102504.14;;;13.83;60.20
65659;BME280;60181;53.258;6.932;2024-03-06T09:27:39;102506.70;;;13.85;59.81
65659;BME280;60181;53.258;6.932;2024-03-06T09:31:51;102510.34;;;13.87;59.61
65659;BME280;60181;53.258;6.932;2024-03-06T09:36:04;102512.57;;;13.89;59.49
65659;BME280;60181;53.258;6.932;2024-03-06T09:40:22;102514.81;;;13.91;59.20
65659;BME280;60181;53.258;6.932;2024-03-06T09:44:27;102518.29;;;13.94;59.02
65659;BME280;60181;53.258;6.932;2024-03-06T09:48:45;102521.00;;;13.96;59.00
65659;BME280;60181;53.258;6.932;2024-03-06T09:52:52;102525.05;;;13.98;58.84
65659;BME280;60181;53.258;6.932;2024-03-06T09:57:04;102530.41;;;14.00;58.87
65659;BME280;60181;53.258;6.932;2024-03-06T10:01:15;102536.15;;;14.01;58.86
65659;BME280;60181;53.258;6.932;2024-03-06T10:05:28;102542.36;;;14.02;58.98
65659;BME280;60181;53.258;6.932;2024-03-06T10:09:39;102548.72;;;14.03;59.00
65659;BME280;60181;53.258;6.932;2024-03-06T10:13:52;102554.11;;;14.03;59.04
65659;BME280;60181;53.258;6.932;2024-03-06T10:18:12;102558.94;;;14.04;58.98
65659;BME280;60181;53.258;6.932;2024-03-06T10:22:15;102562.94;;;14.05;59.02
65659;BME280;60181;53.258;6.932;2024-03-06T10:26:30;102567.72;;;14.06;59.16
65659;BME280;60181;53.258;6.932;2024-03-06T10:30:40;102571.84;;;14.06;59.20
65659;BME280;60181;53.258;6.932;2024-03-06T10:34:51;102575.79;;;14.06;59.31
65659;BME280;60181;53.258;6.932;2024-03-06T10:39:03;102579.91;;;14.05;59.40
65659;BME280;60181;53.258;6.932;2024-03-06T10:43:15;102584.64;;;14.05;59.39
65659;BME280;60181;53.258;6.932;2024-03-06T10:47:28;102588.34;;;14.04;59.13
65659;BME280;60181;53.258;6.932;2024-03-06T10:51:42;102592.35;;;14.03;59.12
65659;BME280;60181;53.258;6.932;2024-03-06T10:55:51;102596.30;;;14.03;59.15
65659;BME280;60181;53.258;6.932;2024-03-06T11:00:04;102597.95;;;14.04;58.90
65659;BME280;60181;53.258;6.932;2024-03-06T11:04:15;102599.11;;;14.06;58.77
65659;BME280;60181;53.258;6.932;2024-03-06T11:08:27;102599.07;;;14.09;58.94
65659;BME280;60181;53.258;6.932;2024-03-06T11:12:39;102600.35;;;14.16;59.14
65659;BME280;60181;53.258;6.932;2024-03-06T11:17:01;102601.88;;;14.23;58.76
65659;BME280;60181;53.258;6.932;2024-03-06T11:30:02;102608.61;;;14.36;58.62
65659;BME280;60181;53.258;6.932;2024-03-06T11:33:42;102611.38;;;14.39;58.62
65659;BME280;60181;53.258;6.932;2024-03-06T11:37:51;102613.70;;;14.42;58.64
65659;BME280;60181;53.258;6.932;2024-03-06T11:42:03;102616.30;;;14.43;58.77
65659;BME280;60181;53.258;6.932;2024-03-06T11:46:15;102618.65;;;14.44;58.68
65659;BME280;60181;53.258;6.932;2024-03-06T11:50:27;102621.25;;;14.45;58.70
65659;BME280;60181;53.258;6.932;2024-03-06T11:54:39;102623.06;;;14.45;58.75
65659;BME280;60181;53.258;6.932;2024-03-06T11:58:51;102625.40;;;14.44;58.77
65659;BME280;60181;53.258;6.932;2024-03-06T12:03:03;102627.19;;;14.43;58.81
65659;BME280;60181;53.258;6.932;2024-03-06T12:07:15;102629.65;;;14.42;58.80
65659;BME280;60181;53.258;6.932;2024-03-06T12:11:27;102631.84;;;14.42;58.84
65659;BME280;60181;53.258;6.932;2024-03-06T12:15:42;102632.41;;;14.41;58.87
65659;BME280;60181;53.258;6.932;2024-03-06T12:19:51;102633.28;;;14.41;58.89
65659;BME280;60181;53.258;6.932;2024-03-06T12:24:09;102635.38;;;14.41;58.94
65659;BME280;60181;53.258;6.932;2024-03-06T12:28:15;102636.45;;;14.41;58.88
65659;BME280;60181;53.258;6.932;2024-03-06T12:32:27;102637.11;;;14.42;58.84
65659;BME280;60181;53.258;6.932;2024-03-06T12:36:39;102637.16;;;14.43;58.75
65659;BME280;60181;53.258;6.932;2024-03-06T12:40:51;102637.73;;;14.44;58.75
65659;BME280;60181;53.258;6.932;2024-03-06T12:45:04;102638.85;;;14.46;58.68
65659;BME280;60181;53.258;6.932;2024-03-06T12:49:15;102639.31;;;14.47;58.85
65659;BME280;60181;53.258;6.932;2024-03-06T12:53:27;102640.75;;;14.48;58.88
65659;BME280;60181;53.258;6.932;2024-03-06T12:57:39;102642.08;;;14.48;58.80
65659;BME280;60181;53.258;6.932;2024-03-06T13:01:51;102643.41;;;14.49;58.83
65659;BME280;60181;53.258;6.932;2024-03-06T13:06:03;102645.01;;;14.49;58.94
65659;BME280;60181;53.258;6.932;2024-03-06T13:10:15;102646.70;;;14.49;58.95
65659;BME280;60181;53.258;6.932;2024-03-06T13:14:27;102647.86;;;14.49;59.02
65659;BME280;60181;53.258;6.932;2024-03-06T13:18:39;102649.51;;;14.49;59.61
65659;BME280;60181;53.258;6.932;2024-03-06T13:22:51;102651.07;;;14.50;59.79
65659;BME280;60181;53.258;6.932;2024-03-06T13:27:03;102652.61;;;14.51;59.36
65659;BME280;60181;53.258;6.932;2024-03-06T13:31:15;102653.76;;;14.52;59.41
65659;BME280;60181;53.258;6.932;2024-03-06T13:35:27;102654.87;;;14.53;59.34
65659;BME280;60181;53.258;6.932;2024-03-06T13:39:39;102656.03;;;14.53;59.36
65659;BME280;60181;53.258;6.932;2024-03-06T13:43:51;102658.02;;;14.53;59.35
65659;BME280;60181;53.258;6.932;2024-03-06T13:48:03;102659.95;;;14.53;59.42
65659;BME280;60181;53.258;6.932;2024-03-06T13:52:15;102662.32;;;14.53;59.51
65659;BME280;60181;53.258;6.932;2024-03-06T13:56:27;102664.12;;;14.53;59.48
65659;BME280;60181;53.258;6.932;2024-03-06T14:00:39;102665.59;;;14.53;59.54
65659;BME280;60181;53.258;6.932;2024-03-06T14:04:51;102667.29;;;14.52;59.62
65659;BME280;60181;53.258;6.932;2024-03-06T14:09:03;102668.02;;;14.51;59.69
65659;BME280;60181;53.258;6.932;2024-03-06T14:13:15;102668.31;;;14.50;59.69
65659;BME280;60181;53.258;6.932;2024-03-06T14:17:27;102669.21;;;14.50;59.72
65659;BME280;60181;53.258;6.932;2024-03-06T14:21:39;102669.07;;;14.51;59.64
65659;BME280;60181;53.258;6.932;2024-03-06T14:25:51;102669.30;;;14.52;59.50
65659;BME280;60181;53.258;6.932;2024-03-06T14:30:03;102668.95;;;14.54;59.54
65659;BME280;60181;53.258;6.932;2024-03-06T14:34:15;102668.15;;;14.55;59.52
65659;BME280;60181;53.258;6.932;2024-03-06T14:38:27;102669.10;;;14.55;59.47
65659;BME280;60181;53.258;6.932;2024-03-06T14:42:39;102671.02;;;14.56;59.47
65659;BME280;60181;53.258;6.932;2024-03-06T14:46:51;102672.42;;;14.56;59.39
65659;BME280;60181;53.258;6.932;2024-03-06T14:51:03;102675.77;;;14.57;59.63
65659;BME280;60181;53.258;6.932;2024-03-06T14:55:15;102678.72;;;14.57;59.62
65659;BME280;60181;53.258;6.932;2024-03-06T14:59:27;102682.36;;;14.57;59.64
65659;BME280;60181;53.258;6.932;2024-03-06T15:03:39;102685.45;;;14.58;59.64
65659;BME280;60181;53.258;6.932;2024-03-06T15:07:51;102687.68;;;14.58;59.55
65659;BME280;60181;53.258;6.932;2024-03-06T15:12:03;102690.33;;;14.58;59.64
65659;BME280;60181;53.258;6.932;2024-03-06T15:16:15;102692.59;;;14.59;59.64
65659;BME280;60181;53.258;6.932;2024-03-06T15:20:27;102696.14;;;14.59;59.62
65659;BME280;60181;53.258;6.932;2024-03-06T15:24:39;102699.18;;;14.59;59.72
65659;BME280;60181;53.258;6.932;2024-03-06T15:28:51;102701.49;;;14.59;59.92
65659;BME280;60181;53.258;6.932;2024-03-06T15:33:04;102703.34;;;14.58;59.92
65659;BME280;60181;53.258;6.932;2024-03-06T15:37:15;102705.37;;;14.57;60.01
65659;BME280;60181;53.258;6.932;2024-03-06T15:41:27;102707.18;;;14.57;59.86
65659;BME280;60181;53.258;6.932;2024-03-06T15:45:39;102708.95;;;14.56;60.12
65659;BME280;60181;53.258;6.932;2024-03-06T15:49:51;102711.05;;;14.55;60.26
65659;BME280;60181;53.258;6.932;2024-03-06T15:54:03;102712.98;;;14.54;60.33
65659;BME280;60181;53.258;6.932;2024-03-06T15:58:15;102714.33;;;14.52;60.41
65659;BME280;60181;53.258;6.932;2024-03-06T16:02:27;102716.92;;;14.51;60.45
65659;BME280;60181;53.258;6.932;2024-03-06T16:06:39;102718.79;;;14.50;60.49
65659;BME280;60181;53.258;6.932;2024-03-06T16:10:51;102720.04;;;14.49;60.61
65659;BME280;60181;53.258;6.932;2024-03-06T16:15:03;102720.91;;;14.48;60.65
65659;BME280;60181;53.258;6.932;2024-03-06T16:19:15;102722.67;;;14.47;60.70
65659;BME280;60181;53.258;6.932;2024-03-06T16:23:27;102724.11;;;14.46;60.77
65659;BME280;60181;53.258;6.932;2024-03-06T16:27:39;102725.46;;;14.45;60.72
65659;BME280;60181;53.258;6.932;2024-03-06T16:31:51;102727.86;;;14.44;60.86
65659;BME280;60181;53.258;6.932;2024-03-06T16:36:03;102729.70;;;14.44;60.60
65659;BME280;60181;53.258;6.932;2024-03-06T16:40:15;102732.92;;;14.43;60.94
65659;BME280;60181;53.258;6.932;2024-03-06T16:44:27;102736.25;;;14.43;61.01
65659;BME280;60181;53.258;6.932;2024-03-06T16:48:39;102739.92;;;14.42;61.00
65659;BME280;60181;53.258;6.932;2024-03-06T16:52:51;102742.54;;;14.41;61.01
65659;BME280;60181;53.258;6.932;2024-03-06T16:57:03;102746.04;;;14.40;61.04
65659;BME280;60181;53.258;6.932;2024-03-06T17:01:15;102749.15;;;14.39;61.09
65659;BME280;60181;53.258;6.932;2024-03-06T17:05:27;102751.89;;;14.38;61.11
65659;BME280;60181;53.258;6.932;2024-03-06T17:09:39;102754.57;;;14.37;61.15
65659;BME280;60181;53.258;6.932;2024-03-06T17:13:51;102758.31;;;14.36;61.17
65659;BME280;60181;53.258;6.932;2024-03-06T17:18:03;102762.34;;;14.35;61.17
65659;BME280;60181;53.258;6.932;2024-03-06T17:22:15;102765.60;;;14.35;61.19
65659;BME280;60181;53.258;6.932;2024-03-06T17:26:27;102769.31;;;14.35;61.43
65659;BME280;60181;53.258;6.932;2024-03-06T17:30:39;102771.75;;;14.36;61.29
65659;BME280;60181;53.258;6.932;2024-03-06T17:34:51;102774.51;;;14.37;61.04
65659;BME280;60181;53.258;6.932;2024-03-06T17:39:03;102777.23;;;14.37;61.15
65659;BME280;60181;53.258;6.932;2024-03-06T17:43:15;102780.04;;;14.37;61.27
65659;BME280;60181;53.258;6.932;2024-03-06T17:47:27;102782.09;;;14.37;61.27
65659;BME280;60181;53.258;6.932;2024-03-06T17:51:39;102784.97;;;14.36;61.26
65659;BME280;60181;53.258;6.932;2024-03-06T17:55:51;102788.77;;;14.36;61.35
65659;BME280;60181;53.258;6.932;2024-03-06T18:00:03;102791.86;;;14.36;61.37
65659;BME280;60181;53.258;6.932;2024-03-06T18:04:15;102795.41;;;14.36;61.42
65659;BME280;60181;53.258;6.932;2024-03-06T18:08:27;102799.28;;;14.35;61.44
65659;BME280;60181;53.258;6.932;2024-03-06T18:12:39;102803.08;;;14.35;61.46
65659;BME280;60181;53.258;6.932;2024-03-06T18:16:51;102807.36;;;14.35;61.51
65659;BME280;60181;53.258;6.932;2024-03-06T18:21:03;102811.82;;;14.35;61.51
65659;BME280;60181;53.258;6.932;2024-03-06T18:25:15;102815.72;;;14.35;61.53
65659;BME280;60181;53.258;6.932;2024-03-06T18:29:27;102820.25;;;14.35;61.56
65659;BME280;60181;53.258;6.932;2024-03-06T18:33:39;102823.67;;;14.34;61.58
65659;BME280;60181;53.258;6.932;2024-03-06T18:37:51;102828.63;;;14.34;61.57
65659;BME280;60181;53.258;6.932;2024-03-06T18:42:03;102831.91;;;14.34;61.56
65659;BME280;60181;53.258;6.932;2024-03-06T18:46:15;102834.72;;;14.34;61.67
65659;BME280;60181;53.258;6.932;2024-03-06T18:50:27;102836.77;;;14.33;61.64
65659;BME280;60181;53.258;6.932;2024-03-06T18:54:39;102838.75;;;14.33;61.65
65659;BME280;60181;53.258;6.932;2024-03-06T18:58:51;102841.06;;;14.33;61.67
65659;BME280;60181;53.258;6.932;2024-03-06T19:03:03;102843.60;;;14.33;61.70
65659;BME280;60181;53.258;6.932;2024-03-06T19:07:15;102847.12;;;14.33;61.76
65659;BME280;60181;53.258;6.932;2024-03-06T19:11:27;102849.84;;;14.33;61.73
65659;BME280;60181;53.258;6.932;2024-03-06T19:15:39;102852.14;;;14.33;61.73
65659;BME280;60181;53.258;6.932;2024-03-06T19:19:51;102853.87;;;14.32;61.80
65659;BME280;60181;53.258;6.932;2024-03-06T19:24:03;102854.93;;;14.32;61.83
65659;BME280;60181;53.258;6.932;2024-03-06T19:28:15;102857.41;;;14.32;61.80
65659;BME280;60181;53.258;6.932;2024-03-06T19:32:27;102858.45;;;14.32;61.77
65659;BME280;60181;53.258;6.932;2024-03-06T19:36:39;102860.60;;;14.32;61.82
65659;BME280;60181;53.258;6.932;2024-03-06T19:40:51;102862.73;;;14.32;61.76
65659;BME280;60181;53.258;6.932;2024-03-06T19:45:03;102864.67;;;14.32;61.79
65659;BME280;60181;53.258;6.932;2024-03-06T19:49:15;102866.75;;;14.35;64.26
65659;BME280;60181;53.258;6.932;2024-03-06T19:53:27;102868.76;;;14.39;64.15
65659;BME280;60181;53.258;6.932;2024-03-06T19:57:39;102869.07;;;14.41;62.55
65659;BME280;60181;53.258;6.932;2024-03-06T20:01:51;102870.09;;;14.41;62.82
65659;BME280;60181;53.258;6.932;2024-03-06T20:06:03;102871.83;;;14.41;62.97
65659;BME280;60181;53.258;6.932;2024-03-06T20:10:15;102874.26;;;14.40;63.00
65659;BME280;60181;53.258;6.932;2024-03-06T20:14:27;102876.15;;;14.40;62.88
65659;BME280;60181;53.258;6.932;2024-03-06T20:18:39;102877.26;;;14.39;62.94
65659;BME280;60181;53.258;6.932;2024-03-06T20:22:51;102878.86;;;14.39;62.87
65659;BME280;60181;53.258;6.932;2024-03-06T20:27:03;102879.85;;;14.38;62.84
65659;BME280;60181;53.258;6.932;2024-03-06T20:31:14;102880.91;;;14.38;62.75
65659;BME280;60181;53.258;6.932;2024-03-06T20:35:26;102881.74;;;14.38;62.66
65659;BME280;60181;53.258;6.932;2024-03-06T20:39:38;102882.64;;;14.38;62.72
65659;BME280;60181;53.258;6.932;2024-03-06T20:43:50;102883.52;;;14.37;62.71
65659;BME280;60181;53.258;6.932;2024-03-06T20:48:03;102884.58;;;14.37;62.67
65659;BME280;60181;53.258;6.932;2024-03-06T20:52:14;102885.56;;;14.37;62.62
65659;BME280;60181;53.258;6.932;2024-03-06T20:56:26;102886.56;;;14.37;62.58
65659;BME280;60181;53.258;6.932;2024-03-06T21:00:39;102886.88;;;14.37;62.64
65659;BME280;60181;53.258;6.932;2024-03-06T21:04:51;102887.22;;;14.37;62.59
65659;BME280;60181;53.258;6.932;2024-03-06T21:09:03;102888.05;;;14.37;62.59
65659;BME280;60181;53.258;6.932;2024-03-06T21:13:14;102888.20;;;14.36;62.59
65659;BME280;60181;53.258;6.932;2024-03-06T21:17:26;102888.85;;;14.36;62.59
65659;BME280;60181;53.258;6.932;2024-03-06T21:21:41;102888.90;;;14.36;62.57
65659;BME280;60181;53.258;6.932;2024-03-06T21:25:50;102890.72;;;14.36;62.61
65659;BME280;60181;53.258;6.932;2024-03-06T21:30:03;102891.70;;;14.36;62.55
65659;BME280;60181;53.258;6.932;2024-03-06T21:34:14;102892.44;;;14.36;62.51
65659;BME280;60181;53.258;6.932;2024-03-06T21:38:26;102894.09;;;14.36;62.49
65659;BME280;60181;53.258;6.932;2024-03-06T21:42:38;102894.96;;;14.36;63.16
65659;BME280;60181;53.258;6.932;2024-03-06T21:46:51;102895.42;;;14.38;61.30
65659;BME280;60181;53.258;6.932;2024-03-06T21:51:03;102896.44;;;14.35;59.51
65659;BME280;60181;53.258;6.932;2024-03-06T21:55:14;102897.78;;;14.30;58.65
65659;BME280;60181;53.258;6.932;2024-03-06T21:59:26;102899.39;;;14.24;58.22
65659;BME280;60181;53.258;6.932;2024-03-06T22:03:38;102901.46;;;14.19;57.84